Time;durP1;ratioP1;P1;durP2;ratioP2;P2;SDS_P1;SDS_P2;PMS_P1;PMS_P2;Temp;Humidity;BMP_temperature;BMP_pressure;BME280_temperature;BME280_humidity;BME280_pressure;Samples;Min_cycle;Max_cycle;Signal;HPM_P1;HPM_P2
2022/12/27 00:00:57;;;;;;;;;;;;;;;;;;4955244;29;19910;-75
2022/12/27 00:03:23;;;;;;;;;;;;;;;;;;4937635;29;19934;-77
2022/12/27 00:05:49;;;;;;;;;;;;;;;;;;4937358;29;19910;-76
2022/12/27 00:08:15;;;;;;;;;;;;;;;;;;4937753;29;20013;-77
2022/12/27 00:10:41;;;;;;;;;;;;;;;;;;4937787;29;19910;-78
2022/12/27 00:13:07;;;;;;;;;;;;;;;;;;4937980;29;20383;-76
2022/12/27 00:15:33;;;;;;;;;;;;;;;;;;4954364;28;19918;-76
2022/12/27 00:17:59;;;;;;;;;;;;;;;;;;4939456;29;20407;-76
2022/12/27 00:20:24;;;;;;;;;;;;;;;;;;4958310;29;19911;-77
2022/12/27 00:22:50;;;;;;;;;;;;;;;;;;4958415;29;19974;-76
2022/12/27 00:25:16;;;;;;;;;;;;;;;;;;4940902;29;19911;-76
2022/12/27 00:27:42;;;;;;;;;;;;;;;;;;4958002;29;19911;-76
2022/12/27 00:30:08;;;;;;;;;;;;;;;;;;4941204;29;19911;-77
2022/12/27 00:32:34;;;;;;;;;;;;;;;;;;4940865;29;19906;-77
2022/12/27 00:35:00;;;;;;;;;;;;;;;;;;4958221;28;19965;-77
2022/12/27 00:37:26;;;;;;;;;;;;;;;;;;4958340;29;19918;-77
2022/12/27 00:39:51;;;;;;;;;;;;;;;;;;4958779;29;19921;-76
2022/12/27 00:42:17;;;;;;;;;;;;;;;;;;4958872;29;20359;-77
2022/12/27 00:44:43;;;;;;;;;;;;;;;;;;4958656;29;19915;-77
2022/12/27 00:47:09;;;;;;;;;;;;;;;;;;4958554;28;20388;-76
2022/12/27 00:49:35;;;;;;;;;;;;;;;;;;4958364;29;19918;-76
2022/12/27 00:52:01;;;;;;;;;;;;;;;;;;4958551;29;20037;-77
2022/12/27 00:54:27;;;;;;;;;;;;;;;;;;4958083;29;19914;-76
2022/12/27 00:56:53;;;;;;;;;;;;;;;;;;4958278;28;20279;-77
2022/12/27 00:59:19;;;;;;;;;;;;;;;;;;4941050;29;19966;-77
2022/12/27 01:01:44;;;;;;;;;;;;;;;;;;4940885;29;20398;-77
2022/12/27 01:04:10;;;;;;;;;;;;;;;;;;4958204;29;19917;-76
2022/12/27 01:06:36;;;;;;;;;;;;;;;;;;4957511;28;20446;-77
2022/12/27 01:09:02;;;;;;;;;;;;;;;;;;4940978;29;19918;-76
2022/12/27 01:11:28;;;;;;;;;;;;;;;;;;4941509;29;19918;-76
2022/12/27 01:13:54;;;;;;;;;;;;;;;;;;4958501;29;19922;-77
2022/12/27 01:16:20;;;;;;;;;;;;;;;;;;4940946;29;19941;-77
2022/12/27 01:18:46;;;;;;;;;;;;;;;;;;4958288;29;19955;-76
2022/12/27 01:21:12;;;;;;;;;;;;;;;;;;4958605;29;20319;-77
2022/12/27 01:23:38;;;;;;;;;;;;;;;;;;4940700;29;19950;-77
2022/12/27 01:26:03;;;;;;;;;;;;;;;;;;4958117;28;19910;-77
2022/12/27 01:28:29;;;;;;;;;;;;;;;;;;4939872;29;20402;-76
2022/12/27 01:30:55;;;;;;;;;;;;;;;;;;4957694;29;19917;-77
2022/12/27 01:33:21;;;;;;;;;;;;;;;;;;4939498;29;20057;-76
2022/12/27 01:35:47;;;;;;;;;;;;;;;;;;4957177;28;19911;-76
2022/12/27 01:38:13;;;;;;;;;;;;;;;;;;4939821;29;19910;-77
2022/12/27 01:40:39;;;;;;;;;;;;;;;;;;4957036;29;19910;-76
2022/12/27 01:43:05;;;;;;;;;;;;;;;;;;4940039;29;20422;-74
2022/12/27 01:45:31;;;;;;;;;;;;;;;;;;4957164;28;19910;-77
2022/12/27 01:47:57;;;;;;;;;;;;;;;;;;4940634;29;19910;-77
2022/12/27 01:50:22;;;;;;;;;;;;;;;;;;4958273;29;19911;-77
2022/12/27 01:52:48;;;;;;;;;;;;;;;;;;4939930;29;19974;-77
2022/12/27 01:55:14;;;;;;;;;;;;;;;;;;4956951;28;19925;-77
2022/12/27 01:57:40;;;;;;;;;;;;;;;;;;4939141;29;19917;-77
2022/12/27 02:00:06;;;;;;;;;;;;;;;;;;4957082;29;19965;-76
2022/12/27 02:02:32;;;;;;;;;;;;;;;;;;4939817;29;19949;-76
2022/12/27 02:04:58;;;;;;;;;;;;;;;;;;4939760;28;20491;-77
2022/12/27 02:07:24;;;;;;;;;;;;;;;;;;4957274;29;19997;-76
2022/12/27 02:09:49;;;;;;;;;;;;;;;;;;4939753;29;19914;-76
2022/12/27 02:12:15;;;;;;;;;;;;;;;;;;4940076;29;19911;-77
2022/12/27 02:14:41;;;;;;;;;;;;;;;;;;4939645;29;20149;-77
2022/12/27 02:17:07;;;;;;;;;;;;;;;;;;4939732;29;19910;-77
2022/12/27 02:19:33;;;;;;;;;;;;;;;;;;4957352;29;19911;-77
2022/12/27 02:21:59;;;;;;;;;;;;;;;;;;4939767;29;19993;-77
2022/12/27 02:24:25;;;;;;;;;;;;;;;;;;4939431;29;19917;-77
2022/12/27 02:26:51;;;;;;;;;;;;;;;;;;4939033;29;19918;-77
2022/12/27 02:29:17;;;;;;;;;;;;;;;;;;4956399;29;20009;-76
2022/12/27 02:31:42;;;;;;;;;;;;;;;;;;4957149;29;19958;-78
2022/12/27 02:34:08;;;;;;;;;;;;;;;;;;4938503;29;19915;-77
2022/12/27 02:36:34;;;;;;;;;;;;;;;;;;4940173;29;19914;-76
2022/12/27 02:39:00;;;;;;;;;;;;;;;;;;4938957;28;19910;-77
2022/12/27 02:55:10;;;;;;;;;;;;;;;;;;4956014;28;20044;-77
2022/12/27 02:57:35;;;;;;;;;;;;;;;;;;4939816;29;19915;-77
2022/12/27 03:05:31;;;;;;;;;;;;;;;;;;4955627;28;19917;-77
2022/12/27 03:07:56;;;;;;;;;;;;;;;;;;4931557;29;19962;-76
2022/12/27 03:16:11;;;;;;;;;;;;;;;;;;4935448;29;19918;-77
2022/12/27 03:18:37;;;;;;;;;;;;;;;;;;4931077;29;19912;-77
2022/12/27 03:26:32;;;;;;;;;;;;;;;;;;4955150;28;20398;-77
2022/12/27 03:34:31;;;;;;;;;;;;;;;;;;4970019;28;19976;-79
2022/12/27 03:39:41;;;;;;;;;;;;;;;;;;4975133;28;20002;-77
2022/12/27 03:44:52;;;;;;;;;;;;;;;;;;4975307;28;19921;-76
2022/12/27 03:47:17;;;;;;;;;;;;;;;;;;4975077;28;19910;-77
2022/12/27 03:49:43;;;;;;;;;;;;;;;;;;4974324;28;19911;-78
2022/12/27 03:52:09;;;;;;;;;;;;;;;;;;4977903;28;19910;-76
2022/12/27 03:54:35;;;;;;;;;;;;;;;;;;4978790;28;19914;-76
2022/12/27 03:57:01;;;;;;;;;;;;;;;;;;4995434;23;19926;-81
2022/12/27 03:59:27;;;;;;;;;;;;;;;;;;4960628;28;20422;-81
2022/12/27 04:01:53;;;;;;;;;;;;;;;;;;4978356;28;19961;-81
2022/12/27 04:04:19;;;;;;;;;;;;;;;;;;4978215;28;20129;-81
2022/12/27 04:06:44;;;;;;;;;;;;;;;;;;4948370;29;20017;-81
2022/12/27 04:36:38;;;;;;;;;;;;;;;;;;4957918;28;20315;-81
2022/12/27 04:39:04;;;;;;;;;;;;;;;;;;4941059;29;19911;-81
2022/12/27 04:55:13;;;;;;;;;;;;;;;;;;4958509;28;20356;-80
2022/12/27 04:57:39;;;;;;;;;;;;;;;;;;4958787;29;20029;-81
2022/12/27 05:02:49;;;;;;;;;;;;;;;;;;4957338;28;19960;-81
2022/12/27 05:05:15;;;;;;;;;;;;;;;;;;4958091;28;19911;-81
2022/12/27 05:15:55;;;;;;;;;;;;;;;;;;4957460;28;19944;-81
2022/12/27 05:18:21;;;;;;;;;;;;;;;;;;4940771;29;19914;-81
2022/12/27 05:20:47;;;;;;;;;;;;;;;;;;4958624;29;19957;-81
2022/12/27 05:25:57;;;;;;;;;;;;;;;;;;4957406;28;19918;-81
2022/12/27 05:28:23;;;;;;;;;;;;;;;;;;4957613;29;19910;-81
2022/12/27 05:30:49;;;;;;;;;;;;;;;;;;4940110;29;19922;-81
2022/12/27 05:33:15;;;;;;;;;;;;;;;;;;4935865;29;19919;-81
2022/12/27 05:35:41;;;;;;;;;;;;;;;;;;4936692;29;20279;-81
2022/12/27 05:38:07;;;;;;;;;;;;;;;;;;4936561;29;19911;-81
2022/12/27 05:40:33;;;;;;;;;;;;;;;;;;4937202;29;19958;-81
2022/12/27 05:42:59;;;;;;;;;;;;;;;;;;4937191;29;20372;-81
2022/12/27 05:45:25;;;;;;;;;;;;;;;;;;4937882;29;19911;-81
2022/12/27 05:47:51;;;;;;;;;;;;;;;;;;4938103;29;19966;-81
2022/12/27 05:50:17;;;;;;;;;;;;;;;;;;4936926;29;19915;-81
2022/12/27 05:52:43;;;;;;;;;;;;;;;;;;4936641;29;19965;-81
2022/12/27 05:55:09;;;;;;;;;;;;;;;;;;4936047;29;20347;-81
2022/12/27 05:57:35;;;;;;;;;;;;;;;;;;4936524;29;19911;-81
2022/12/27 06:00:01;;;;;;;;;;;;;;;;;;4936425;29;19953;-79
2022/12/27 06:02:27;;;;;;;;;;;;;;;;;;4937789;29;19965;-81
2022/12/27 06:04:53;;;;;;;;;;;;;;;;;;4936002;29;20384;-81
2022/12/27 06:07:19;;;;;;;;;;;;;;;;;;4936113;29;19918;-81
2022/12/27 06:09:44;;;;;;;;;;;;;;;;;;4935893;29;19911;-81
2022/12/27 06:12:10;;;;;;;;;;;;;;;;;;4936176;29;20368;-81
2022/12/27 06:14:36;;;;;;;;;;;;;;;;;;4936042;29;19915;-81
2022/12/27 06:17:02;;;;;;;;;;;;;;;;;;4935853;29;20287;-81
2022/12/27 06:19:28;;;;;;;;;;;;;;;;;;4935032;29;19911;-81
2022/12/27 06:21:54;;;;;;;;;;;;;;;;;;4935605;29;19911;-81
2022/12/27 06:24:20;;;;;;;;;;;;;;;;;;4936294;29;19914;-81
2022/12/27 06:26:46;;;;;;;;;;;;;;;;;;4935612;29;19911;-80
2022/12/27 06:29:11;;;;;;;;;;;;;;;;;;4938873;29;19915;-82
2022/12/27 06:31:37;;;;;;;;;;;;;;;;;;4947884;29;19910;-81
2022/12/27 06:34:04;;;;;;;;;;;;;;;;;;4967518;29;19914;-81
2022/12/27 06:36:31;;;;;;;;;;;;;;;;;;4963841;28;19922;-81
2022/12/27 06:38:57;;;;;;;;;;;;;;;;;;4945234;29;19911;-81
2022/12/27 06:41:23;;;;;;;;;;;;;;;;;;4940696;29;19916;-81
2022/12/27 06:43:48;;;;;;;;;;;;;;;;;;4947740;29;19969;-79
2022/12/27 06:46:14;;;;;;;;;;;;;;;;;;4955242;29;19910;-80
2022/12/27 06:48:40;;;;;;;;;;;;;;;;;;4938374;29;19911;-80
2022/12/27 06:51:06;;;;;;;;;;;;;;;;;;4956100;29;20571;-80
2022/12/27 06:53:32;;;;;;;;;;;;;;;;;;4937762;29;19921;-80
2022/12/27 06:55:58;;;;;;;;;;;;;;;;;;4937237;29;20447;-80
2022/12/27 06:58:24;;;;;;;;;;;;;;;;;;4938132;29;19910;-81
2022/12/27 07:00:50;;;;;;;;;;;;;;;;;;4938256;29;20272;-80
2022/12/27 07:03:15;;;;;;;;;;;;;;;;;;4937854;29;19910;-81
2022/12/27 07:05:41;;;;;;;;;;;;;;;;;;4955289;29;19910;-80
2022/12/27 07:08:08;;;;;;;;;;;;;;;;;;4955162;29;19910;-80
2022/12/27 07:10:34;;;;;;;;;;;;;;;;;;4938244;29;19918;-80
2022/12/27 07:13:00;;;;;;;;;;;;;;;;;;4937879;29;19910;-79
2022/12/27 07:15:26;;;;;;;;;;;;;;;;;;4955039;29;19911;-80
2022/12/27 07:17:52;;;;;;;;;;;;;;;;;;4937685;29;19946;-80
2022/12/27 07:20:18;;;;;;;;;;;;;;;;;;4937914;29;20359;-80
2022/12/27 07:22:44;;;;;;;;;;;;;;;;;;4955102;29;19911;-80
2022/12/27 07:25:10;;;;;;;;;;;;;;;;;;4937543;28;19922;-80
2022/12/27 07:27:35;;;;;;;;;;;;;;;;;;4957690;29;19910;-79
2022/12/27 07:30:01;;;;;;;;;;;;;;;;;;4942012;29;20023;-80
2022/12/27 07:32:27;;;;;;;;;;;;;;;;;;4942065;29;19911;-79
2022/12/27 07:34:53;;;;;;;;;;;;;;;;;;4941577;29;19915;-81
2022/12/27 07:37:19;;;;;;;;;;;;;;;;;;4958496;29;19938;-80
2022/12/27 07:39:45;;;;;;;;;;;;;;;;;;4960153;29;19910;-80
2022/12/27 07:42:11;;;;;;;;;;;;;;;;;;4944240;29;19914;-80
2022/12/27 07:44:37;;;;;;;;;;;;;;;;;;4959289;29;20011;-80
2022/12/27 07:47:03;;;;;;;;;;;;;;;;;;4942330;29;20386;-81
2022/12/27 07:49:29;;;;;;;;;;;;;;;;;;4941433;29;19910;-80
2022/12/27 07:51:55;;;;;;;;;;;;;;;;;;4940906;29;19910;-80
2022/12/27 07:54:20;;;;;;;;;;;;;;;;;;4940696;29;19985;-80
2022/12/27 07:56:46;;;;;;;;;;;;;;;;;;4957492;29;19925;-80
2022/12/27 07:59:12;;;;;;;;;;;;;;;;;;4958146;29;20104;-81
2022/12/27 08:02:02;;;;;;;;;;;;;;;;;;4944435;29;19945;-79
2022/12/27 08:04:27;;;;;;;;;;;;;;;;;;4958069;28;19910;-81
2022/12/27 08:06:53;;;;;;;;;;;;;;;;;;4957503;29;19916;-81
2022/12/27 08:09:19;;;;;;;;;;;;;;;;;;4957475;29;20290;-81
2022/12/27 08:11:45;;;;;;;;;;;;;;;;;;4957847;29;19969;-80
2022/12/27 08:14:11;;;;;;;;;;;;;;;;;;4958900;29;20393;-81
2022/12/27 08:16:36;;;;;;;;;;;;;;;;;;4929266;29;19921;-80
2022/12/27 08:19:02;;;;;;;;;;;;;;;;;;4939814;29;19910;-81
2022/12/27 08:21:28;;;;;;;;;;;;;;;;;;4940060;29;19914;-80
2022/12/27 08:23:54;;;;;;;;;;;;;;;;;;4945548;29;19922;-79
2022/12/27 08:26:20;;;;;;;;;;;;;;;;;;4956856;29;20327;-80
2022/12/27 08:28:46;;;;;;;;;;;;;;;;;;4940046;29;19946;-80
2022/12/27 08:31:12;;;;;;;;;;;;;;;;;;4940017;29;20001;-80
2022/12/27 08:33:40;;;;;;;;;;;;;;;;;;4940668;29;19914;-79
2022/12/27 08:36:06;;;;;;;;;;;;;;;;;;4959631;29;19994;-80
2022/12/27 08:38:32;;;;;;;;;;;;;;;;;;4938890;29;19910;-80
2022/12/27 08:40:57;;;;;;;;;;;;;;;;;;4939967;29;20026;-79
2022/12/27 08:43:23;;;;;;;;;;;;;;;;;;4939956;29;19933;-81
2022/12/27 08:45:49;;;;;;;;;;;;;;;;;;4939519;29;19915;-80
2022/12/27 08:48:15;;;;;;;;;;;;;;;;;;4939551;29;19911;-80
2022/12/27 08:50:41;;;;;;;;;;;;;;;;;;4939819;29;19917;-80
2022/12/27 08:53:07;;;;;;;;;;;;;;;;;;4956826;29;20339;-79
2022/12/27 08:55:33;;;;;;;;;;;;;;;;;;4939317;29;19925;-80
2022/12/27 08:57:59;;;;;;;;;;;;;;;;;;4939548;29;19910;-79
2022/12/27 09:00:25;;;;;;;;;;;;;;;;;;4940090;28;19914;-79
2022/12/27 09:02:51;;;;;;;;;;;;;;;;;;4958935;28;19922;-77
2022/12/27 09:05:18;;;;;;;;;;;;;;;;;;4961713;28;19910;-78
2022/12/27 09:07:44;;;;;;;;;;;;;;;;;;4931534;29;20283;-80
2022/12/27 09:10:10;;;;;;;;;;;;;;;;;;4932013;29;19915;-79
2022/12/27 09:12:36;;;;;;;;;;;;;;;;;;4949736;29;19910;-79
2022/12/27 09:15:02;;;;;;;;;;;;;;;;;;4928118;29;19986;-79
2022/12/27 09:17:27;;;;;;;;;;;;;;;;;;4948156;29;19914;-79
2022/12/27 09:19:53;;;;;;;;;;;;;;;;;;4928694;29;19919;-79
2022/12/27 09:22:19;;;;;;;;;;;;;;;;;;4928056;29;20269;-79
2022/12/27 09:24:45;;;;;;;;;;;;;;;;;;4929987;29;19910;-80
2022/12/27 09:27:11;;;;;;;;;;;;;;;;;;4931427;29;19917;-79
2022/12/27 09:29:37;;;;;;;;;;;;;;;;;;4923289;29;19915;-79
2022/12/27 09:32:03;;;;;;;;;;;;;;;;;;4936491;29;19914;-79
2022/12/27 09:34:32;;;;;;;;;;;;;;;;;;4966008;28;19910;-81
2022/12/27 09:39:34;;;;;;;;;;;;;;;;;;5515647;23;20061;-82
2022/12/27 09:42:10;;;;;;;;;;;;;;;;;;5126891;23;19909;-79
2022/12/27 09:44:36;;;;;;;;;;;;;;;;;;5023236;28;19913;-80
2022/12/27 09:47:02;;;;;;;;;;;;;;;;;;4991931;28;19940;-81
2022/12/27 09:49:28;;;;;;;;;;;;;;;;;;5013521;28;19910;-89
2022/12/27 10:02:17;;;;;;;;;;;;;;;;;;1395852;23;20200;-81
2022/12/27 10:04:43;;;;;;;;;;;;;;;;;;5005931;28;19929;-82
2022/12/27 10:07:10;;;;;;;;;;;;;;;;;;5530214;23;19930;-80
2022/12/27 10:09:36;;;;;;;;;;;;;;;;;;5015694;28;20001;-80
2022/12/27 10:12:02;;;;;;;;;;;;;;;;;;5021906;28;19956;-80
2022/12/27 10:14:27;;;;;;;;;;;;;;;;;;5015976;28;19969;-80
2022/12/27 10:16:53;;;;;;;;;;;;;;;;;;5007052;28;20595;-80
2022/12/27 10:19:19;;;;;;;;;;;;;;;;;;5003995;28;19921;-80
2022/12/27 10:21:45;;;;;;;;;;;;;;;;;;4994836;28;19992;-78
2022/12/27 10:24:11;;;;;;;;;;;;;;;;;;5009193;28;19909;-87
2022/12/27 10:26:37;;;;;;;;;;;;;;;;;;4994291;28;19913;-79
2022/12/27 10:29:03;;;;;;;;;;;;;;;;;;4996598;28;19910;-80
2022/12/27 10:31:29;;;;;;;;;;;;;;;;;;5015525;28;19988;-80
2022/12/27 10:33:56;;;;;;;;;;;;;;;;;;5089277;23;19984;-86
2022/12/27 10:36:22;;;;;;;;;;;;;;;;;;5003191;28;19902;-80
2022/12/27 10:38:50;;;;;;;;;;;;;;;;;;5015471;23;19910;-84
2022/12/27 10:43:52;;;;;;;;;;;;;;;;;;5593367;23;19937;-83
2022/12/27 10:48:53;;;;;;;;;;;;;;;;;;5064183;23;19989;-80
2022/12/27 10:51:19;;;;;;;;;;;;;;;;;;5023694;28;19905;-82
2022/12/27 10:53:45;;;;;;;;;;;;;;;;;;5023662;28;19907;-82
2022/12/27 10:56:11;;;;;;;;;;;;;;;;;;5045371;23;20386;-81
2022/12/27 10:58:37;;;;;;;;;;;;;;;;;;5046604;28;19976;-82
2022/12/27 11:01:03;;;;;;;;;;;;;;;;;;5039544;28;19909;-82
2022/12/27 11:03:31;;;;;;;;;;;;;;;;;;5050094;23;19910;-80
2022/12/27 11:05:57;;;;;;;;;;;;;;;;;;5014944;28;19922;-79
2022/12/27 11:10:58;;;;;;;;;;;;;;;;;;5542353;22;19924;-79
2022/12/27 11:13:24;;;;;;;;;;;;;;;;;;5020451;28;19933;-80
2022/12/27 11:15:50;;;;;;;;;;;;;;;;;;5032642;28;19948;-79
2022/12/27 11:18:16;;;;;;;;;;;;;;;;;;5012346;28;19945;-78
2022/12/27 11:20:42;;;;;;;;;;;;;;;;;;5013667;28;19910;-78
2022/12/27 11:23:08;;;;;;;;;;;;;;;;;;5003852;28;19920;-78
2022/12/27 11:25:34;;;;;;;;;;;;;;;;;;5012979;28;20051;-80
2022/12/27 11:28:00;;;;;;;;;;;;;;;;;;5013321;28;19922;-78
2022/12/27 11:30:25;;;;;;;;;;;;;;;;;;4995995;28;19910;-78
2022/12/27 11:32:51;;;;;;;;;;;;;;;;;;4996658;28;19917;-78
2022/12/27 11:35:17;;;;;;;;;;;;;;;;;;4995723;28;19976;-80
2022/12/27 11:37:43;;;;;;;;;;;;;;;;;;4995603;28;20008;-78
2022/12/27 11:40:09;;;;;;;;;;;;;;;;;;5014054;28;19959;-79
2022/12/27 11:42:37;;;;;;;;;;;;;;;;;;4995419;28;19916;-78
2022/12/27 11:45:03;;;;;;;;;;;;;;;;;;5013096;28;19914;-78
2022/12/27 11:47:30;;;;;;;;;;;;;;;;;;5010930;28;19929;-77
2022/12/27 11:49:56;;;;;;;;;;;;;;;;;;5008746;28;20052;-78
2022/12/27 11:52:22;;;;;;;;;;;;;;;;;;5009278;28;19956;-79
2022/12/27 11:57:23;;;;;;;;;;;;;;;;;;5271403;23;19926;-80
2022/12/27 11:59:50;;;;;;;;;;;;;;;;;;5013632;28;19964;-79
2022/12/27 12:02:16;;;;;;;;;;;;;;;;;;4997008;28;19907;-80
2022/12/27 12:04:41;;;;;;;;;;;;;;;;;;4989754;28;19917;-80
2022/12/27 12:07:07;;;;;;;;;;;;;;;;;;5011641;28;19909;-80
2022/12/27 12:09:33;;;;;;;;;;;;;;;;;;5014924;28;19914;-80
2022/12/27 12:11:59;;;;;;;;;;;;;;;;;;5012300;28;19922;-79
2022/12/27 12:14:25;;;;;;;;;;;;;;;;;;4992885;28;20401;-79
2022/12/27 12:16:51;;;;;;;;;;;;;;;;;;5003192;28;19917;-80
2022/12/27 12:19:17;;;;;;;;;;;;;;;;;;5005616;28;20416;-79
2022/12/27 12:21:44;;;;;;;;;;;;;;;;;;4999509;28;19909;-80
2022/12/27 12:24:13;;;;;;;;;;;;;;;;;;5017008;28;19953;-80
2022/12/27 12:26:39;;;;;;;;;;;;;;;;;;4998375;28;19953;-80
2022/12/27 12:29:05;;;;;;;;;;;;;;;;;;5012304;28;20392;-80
2022/12/27 12:31:31;;;;;;;;;;;;;;;;;;5011820;28;19913;-78
2022/12/27 12:33:57;;;;;;;;;;;;;;;;;;5003213;28;19925;-77
2022/12/27 12:36:23;;;;;;;;;;;;;;;;;;5011807;28;19997;-77
2022/12/27 12:38:49;;;;;;;;;;;;;;;;;;5013199;28;20453;-77
2022/12/27 12:41:15;;;;;;;;;;;;;;;;;;5013451;28;19955;-76
2022/12/27 12:43:41;;;;;;;;;;;;;;;;;;4996329;28;19917;-78
2022/12/27 12:46:07;;;;;;;;;;;;;;;;;;5004815;28;19909;-78
2022/12/27 12:48:32;;;;;;;;;;;;;;;;;;4996359;28;19916;-77
2022/12/27 12:50:58;;;;;;;;;;;;;;;;;;5013629;28;20004;-77
2022/12/27 12:53:24;;;;;;;;;;;;;;;;;;5002740;28;19921;-77
2022/12/27 12:55:50;;;;;;;;;;;;;;;;;;5005183;28;19924;-78
2022/12/27 12:58:16;;;;;;;;;;;;;;;;;;4997828;28;19945;-79
2022/12/27 13:00:42;;;;;;;;;;;;;;;;;;4997815;28;19913;-80
2022/12/27 13:03:08;;;;;;;;;;;;;;;;;;4996610;28;19910;-79
2022/12/27 13:05:34;;;;;;;;;;;;;;;;;;5012641;28;19964;-78
2022/12/27 13:08:00;;;;;;;;;;;;;;;;;;5000396;28;20366;-80
2022/12/27 13:10:26;;;;;;;;;;;;;;;;;;4999306;28;19933;-80
2022/12/27 13:12:52;;;;;;;;;;;;;;;;;;4996731;28;19921;-79
2022/12/27 13:15:19;;;;;;;;;;;;;;;;;;4995492;28;19925;-80
2022/12/27 13:17:45;;;;;;;;;;;;;;;;;;4994098;28;19914;-78
2022/12/27 13:20:12;;;;;;;;;;;;;;;;;;5002586;28;19963;-79
2022/12/27 13:22:43;;;;;;;;;;;;;;;;;;5006880;28;19909;-80
2022/12/27 13:25:10;;;;;;;;;;;;;;;;;;5007130;28;19949;-78
2022/12/27 13:27:38;;;;;;;;;;;;;;;;;;5007204;28;19949;-80
2022/12/27 13:30:10;;;;;;;;;;;;;;;;;;5000013;28;19968;-80
2022/12/27 13:32:36;;;;;;;;;;;;;;;;;;4998071;28;19910;-79
2022/12/27 13:35:07;;;;;;;;;;;;;;;;;;4999281;28;20285;-80
2022/12/27 13:37:33;;;;;;;;;;;;;;;;;;5013628;28;19929;-81
2022/12/27 13:42:58;;;;;;;;;;;;;;;;;;5249851;23;19976;-80
2022/12/27 13:45:24;;;;;;;;;;;;;;;;;;5001864;28;19914;-80
2022/12/27 13:47:50;;;;;;;;;;;;;;;;;;4998245;28;19918;-80
2022/12/27 13:50:16;;;;;;;;;;;;;;;;;;4998639;28;19919;-79
2022/12/27 13:52:45;;;;;;;;;;;;;;;;;;5019377;28;19898;-84
2022/12/27 13:55:14;;;;;;;;;;;;;;;;;;5020041;28;19925;-80
2022/12/27 13:57:39;;;;;;;;;;;;;;;;;;4991257;28;20363;-80
2022/12/27 14:00:05;;;;;;;;;;;;;;;;;;4995602;28;19914;-80
2022/12/27 14:02:31;;;;;;;;;;;;;;;;;;4998648;28;19925;-80
2022/12/27 14:04:57;;;;;;;;;;;;;;;;;;4996788;28;19917;-80
2022/12/27 14:07:28;;;;;;;;;;;;;;;;;;4979138;28;19917;-85
2022/12/27 15:35:45;;;;;;;;;;;;;;;;;;5424110;23;19979;-79
2022/12/27 15:38:11;;;;;;;;;;;;;;;;;;4975468;28;20354;-76
2022/12/27 15:40:37;;;;;;;;;;;;;;;;;;4992882;28;19949;-76
2022/12/27 15:43:02;;;;;;;;;;;;;;;;;;4975187;28;19995;-75
2022/12/27 15:45:29;;;;;;;;;;;;;;;;;;4991936;28;20297;-76
2022/12/27 15:47:55;;;;;;;;;;;;;;;;;;4977063;28;20457;-76
2022/12/27 15:50:20;;;;;;;;;;;;;;;;;;4979198;28;20005;-76
2022/12/27 15:52:46;;;;;;;;;;;;;;;;;;4979109;28;20008;-76
2022/12/27 15:55:12;;;;;;;;;;;;;;;;;;4978712;28;20366;-76
2022/12/27 15:57:38;;;;;;;;;;;;;;;;;;4996437;28;19914;-76
2022/12/27 16:00:04;;;;;;;;;;;;;;;;;;4976351;28;19914;-76
2022/12/27 16:02:30;;;;;;;;;;;;;;;;;;4995787;28;20375;-76
2022/12/27 16:04:56;;;;;;;;;;;;;;;;;;4979097;28;19998;-77
2022/12/27 16:07:22;;;;;;;;;;;;;;;;;;4974188;28;19915;-76
2022/12/27 16:09:48;;;;;;;;;;;;;;;;;;4993395;28;19914;-75
2022/12/27 16:12:13;;;;;;;;;;;;;;;;;;4993247;28;19914;-76
2022/12/27 16:14:39;;;;;;;;;;;;;;;;;;4990147;28;19992;-76
2022/12/27 16:17:05;;;;;;;;;;;;;;;;;;4978811;28;20439;-77
2022/12/27 16:19:31;;;;;;;;;;;;;;;;;;4992951;28;20012;-77
2022/12/27 16:21:57;;;;;;;;;;;;;;;;;;4978281;28;19909;-76
2022/12/27 16:24:23;;;;;;;;;;;;;;;;;;4995527;28;20396;-75
2022/12/27 16:26:49;;;;;;;;;;;;;;;;;;4978459;28;20292;-76
2022/12/27 16:29:15;;;;;;;;;;;;;;;;;;4995644;28;19910;-76
2022/12/27 16:31:41;;;;;;;;;;;;;;;;;;4975380;28;20298;-75
2022/12/27 16:34:07;;;;;;;;;;;;;;;;;;4992052;28;19914;-75
2022/12/27 16:36:33;;;;;;;;;;;;;;;;;;4978071;28;20325;-75
2022/12/27 16:38:59;;;;;;;;;;;;;;;;;;4993902;28;20004;-75
2022/12/27 16:41:24;;;;;;;;;;;;;;;;;;4980792;28;21229;-74
2022/12/27 16:43:50;;;;;;;;;;;;;;;;;;4995266;28;19910;-75
2022/12/27 16:46:16;;;;;;;;;;;;;;;;;;4994966;28;19914;-76
2022/12/27 16:48:42;;;;;;;;;;;;;;;;;;4994954;28;20005;-75
2022/12/27 16:51:08;;;;;;;;;;;;;;;;;;4995208;28;20260;-75
2022/12/27 16:53:34;;;;;;;;;;;;;;;;;;4994881;28;19918;-75
2022/12/27 16:56:00;;;;;;;;;;;;;;;;;;4995123;28;20391;-75
2022/12/27 16:58:26;;;;;;;;;;;;;;;;;;4992373;28;19920;-75
2022/12/27 17:00:52;;;;;;;;;;;;;;;;;;4989666;28;19914;-75
2022/12/27 17:03:18;;;;;;;;;;;;;;;;;;4999846;23;19910;-79
2022/12/27 17:05:43;;;;;;;;;;;;;;;;;;5006289;28;19968;-79
2022/12/27 17:08:09;;;;;;;;;;;;;;;;;;4993976;28;20016;-79
2022/12/27 17:10:35;;;;;;;;;;;;;;;;;;4991306;28;19910;-78
2022/12/27 17:13:01;;;;;;;;;;;;;;;;;;4984866;28;20371;-78
2022/12/27 17:15:27;;;;;;;;;;;;;;;;;;4994475;28;19924;-78
2022/12/27 17:17:53;;;;;;;;;;;;;;;;;;4995080;28;19965;-78
2022/12/27 17:20:20;;;;;;;;;;;;;;;;;;4993876;28;19921;-77
2022/12/27 17:22:45;;;;;;;;;;;;;;;;;;4981803;28;19914;-79
2022/12/27 17:25:11;;;;;;;;;;;;;;;;;;4987953;28;19983;-81
2022/12/27 17:27:37;;;;;;;;;;;;;;;;;;4973363;28;20401;-79
2022/12/27 17:30:03;;;;;;;;;;;;;;;;;;4978109;28;19917;-78
2022/12/27 17:32:29;;;;;;;;;;;;;;;;;;4995528;28;20456;-79
2022/12/27 17:34:55;;;;;;;;;;;;;;;;;;4995057;28;20021;-79
2022/12/27 17:37:21;;;;;;;;;;;;;;;;;;4977749;28;20367;-80
2022/12/27 17:39:47;;;;;;;;;;;;;;;;;;4977867;28;19914;-81
2022/12/27 17:44:57;;;;;;;;;;;;;;;;;;4986830;28;19957;-78
2022/12/27 17:47:23;;;;;;;;;;;;;;;;;;4975391;28;19917;-81
2022/12/27 17:49:49;;;;;;;;;;;;;;;;;;4980385;28;19910;-80
2022/12/27 17:57:53;;;;;;;;;;;;;;;;;;5014545;28;19916;-80
2022/12/27 18:00:19;;;;;;;;;;;;;;;;;;4996506;28;19910;-78
2022/12/27 18:02:45;;;;;;;;;;;;;;;;;;4980855;28;19914;-83
2022/12/27 18:05:11;;;;;;;;;;;;;;;;;;4975373;28;20378;-79
2022/12/27 18:07:37;;;;;;;;;;;;;;;;;;4993729;28;19920;-78
2022/12/27 18:10:03;;;;;;;;;;;;;;;;;;4983765;28;20432;-78
2022/12/27 18:12:29;;;;;;;;;;;;;;;;;;5008014;28;19910;-79
2022/12/27 18:14:54;;;;;;;;;;;;;;;;;;4986235;28;19922;-79
2022/12/27 18:17:20;;;;;;;;;;;;;;;;;;5002754;28;19910;-78
2022/12/27 18:19:46;;;;;;;;;;;;;;;;;;4983655;28;19909;-78
2022/12/27 18:22:12;;;;;;;;;;;;;;;;;;5001692;28;19920;-80
2022/12/27 18:24:38;;;;;;;;;;;;;;;;;;5004758;28;20016;-79
2022/12/27 18:27:04;;;;;;;;;;;;;;;;;;5012524;28;19909;-78
2022/12/27 18:29:30;;;;;;;;;;;;;;;;;;4996645;28;19921;-79
2022/12/27 18:31:56;;;;;;;;;;;;;;;;;;4981881;28;19913;-78
2022/12/27 18:34:22;;;;;;;;;;;;;;;;;;4982173;28;19914;-77
2022/12/27 18:36:48;;;;;;;;;;;;;;;;;;5000564;28;19909;-82
2022/12/27 18:39:14;;;;;;;;;;;;;;;;;;5002468;28;20373;-79
2022/12/27 18:41:39;;;;;;;;;;;;;;;;;;4979977;28;19920;-79
2022/12/27 18:44:05;;;;;;;;;;;;;;;;;;4983394;28;19921;-80
2022/12/27 18:46:31;;;;;;;;;;;;;;;;;;4989748;28;19910;-78
2022/12/27 18:48:57;;;;;;;;;;;;;;;;;;4984661;28;20005;-79
2022/12/27 18:51:23;;;;;;;;;;;;;;;;;;4978356;28;19913;-78
2022/12/27 18:53:49;;;;;;;;;;;;;;;;;;4980163;28;19921;-79
2022/12/27 18:56:15;;;;;;;;;;;;;;;;;;4979348;28;20301;-79
2022/12/27 18:58:41;;;;;;;;;;;;;;;;;;4996583;28;19909;-79
2022/12/27 19:01:07;;;;;;;;;;;;;;;;;;5004254;28;19910;-79
2022/12/27 19:03:33;;;;;;;;;;;;;;;;;;5011809;28;19950;-79
2022/12/27 19:06:04;;;;;;;;;;;;;;;;;;4996275;28;19922;-84
2022/12/27 19:08:32;;;;;;;;;;;;;;;;;;5001103;28;19914;-81
2022/12/27 19:13:27;;;;;;;;;;;;;;;;;;4994604;28;19916;-79
2022/12/27 19:15:52;;;;;;;;;;;;;;;;;;4976818;28;20000;-80
2022/12/27 19:18:18;;;;;;;;;;;;;;;;;;4996642;28;19913;-79
2022/12/27 19:20:44;;;;;;;;;;;;;;;;;;4996622;28;19926;-79
2022/12/27 19:23:10;;;;;;;;;;;;;;;;;;5020850;28;19964;-84
2022/12/27 19:28:07;;;;;;;;;;;;;;;;;;4993247;28;19913;-81
2022/12/27 19:30:33;;;;;;;;;;;;;;;;;;5003761;28;19916;-85
2022/12/27 19:32:59;;;;;;;;;;;;;;;;;;4992120;28;19920;-81
2022/12/27 19:35:25;;;;;;;;;;;;;;;;;;4999783;28;19925;-86
2022/12/27 19:37:50;;;;;;;;;;;;;;;;;;5007962;28;19933;-84
2022/12/27 19:40:16;;;;;;;;;;;;;;;;;;5003716;28;19914;-84
2022/12/27 19:42:43;;;;;;;;;;;;;;;;;;5004805;28;19916;-84
2022/12/27 19:45:09;;;;;;;;;;;;;;;;;;5022299;28;20008;-84
2022/12/27 19:47:38;;;;;;;;;;;;;;;;;;5003812;28;19952;-85
2022/12/27 19:50:04;;;;;;;;;;;;;;;;;;4993660;28;19914;-84
2022/12/27 19:52:30;;;;;;;;;;;;;;;;;;5011820;28;19960;-84
2022/12/27 19:54:56;;;;;;;;;;;;;;;;;;4987693;28;19917;-84
2022/12/27 19:57:22;;;;;;;;;;;;;;;;;;4984331;28;20342;-84
2022/12/27 19:59:48;;;;;;;;;;;;;;;;;;5000621;28;19971;-84
2022/12/27 20:02:14;;;;;;;;;;;;;;;;;;4982852;28;20371;-82
2022/12/27 20:04:40;;;;;;;;;;;;;;;;;;4981932;28;19918;-83
2022/12/27 20:07:06;;;;;;;;;;;;;;;;;;4983604;28;19910;-83
2022/12/27 20:09:32;;;;;;;;;;;;;;;;;;4983185;28;20314;-82
2022/12/27 20:11:58;;;;;;;;;;;;;;;;;;4982616;28;19910;-81
2022/12/27 20:14:24;;;;;;;;;;;;;;;;;;4982274;28;19914;-83
2022/12/27 20:16:49;;;;;;;;;;;;;;;;;;4981957;28;19956;-82
2022/12/27 20:19:16;;;;;;;;;;;;;;;;;;4981643;28;19914;-81